createdAt,value
2022-09-13T00:01:20.559Z,99261.75
2022-09-13T00:03:49.068Z,99268.41
2022-09-13T00:06:20.143Z,99268.41
2022-09-13T00:08:49.779Z,99271.97
2022-09-13T00:11:22.022Z,99278.59
2022-09-13T00:13:51.239Z,99279.59
2022-09-13T00:16:22.156Z,99278.31
2022-09-13T00:18:50.829Z,99280.59
2022-09-13T00:21:21.233Z,99288.75
2022-09-13T00:23:52.896Z,99290.53
2022-09-13T00:26:24.897Z,99295.09
2022-09-13T00:28:57.011Z,99295.59
2022-09-13T00:31:28.669Z,99308.59
2022-09-13T00:33:59.568Z,99308.84
2022-09-13T00:36:28.402Z,99311.13
2022-09-13T00:38:56.823Z,99315.69
2022-09-13T00:41:25.482Z,99320.28
2022-09-13T00:44:03.276Z,99326.38
2022-09-13T00:46:31.683Z,99323.81
2022-09-13T00:49:21.550Z,99322.00
2022-09-13T00:51:58.967Z,99329.41
2022-09-13T00:54:36.406Z,99333.97
2022-09-13T00:57:06.901Z,99337.03
2022-09-13T00:59:47.116Z,99344.41
2022-09-13T01:02:16.643Z,99347.47
2022-09-13T01:04:46.178Z,99341.31
2022-09-13T01:07:18.691Z,99357.88
2022-09-13T01:09:51.704Z,99358.38
2022-09-13T01:12:57.149Z,99361.41
2022-09-13T01:15:25.599Z,99364.72
2022-09-13T01:17:57.171Z,99366.50
2022-09-13T01:20:45.849Z,99373.91
2022-09-13T01:23:32.616Z,99377.97
2022-09-13T01:26:31.226Z,99378.69
2022-09-13T01:29:01.145Z,99385.00
2022-09-13T01:31:36.795Z,99387.00
2022-09-13T01:34:14.777Z,99389.81
2022-09-13T01:37:01.702Z,99393.66
2022-09-13T01:39:56.633Z,99391.31
2022-09-13T01:42:50.332Z,99393.09
2022-09-13T01:45:37.905Z,99406.84
2022-09-13T01:48:28.904Z,99405.03
2022-09-13T01:51:14.867Z,99401.19
2022-09-13T01:53:58.394Z,99405.75
2022-09-13T01:56:40.793Z,99405.47
2022-09-13T01:59:20.948Z,99406.50
2022-09-13T02:02:26.333Z,99411.31
2022-09-13T02:05:01.125Z,99415.13
2022-09-13T02:07:40.339Z,99414.06
2022-09-13T02:10:20.597Z,99410.19
2022-09-13T02:12:52.422Z,99411.69
2022-09-13T02:15:36.012Z,99415.50
2022-09-13T02:18:27.371Z,99401.41
2022-09-13T02:21:02.354Z,99407.75
2022-09-13T02:23:37.767Z,99408.72
2022-09-13T02:26:08.115Z,99400.00
2022-09-13T02:28:46.548Z,99400.47
2022-09-13T02:31:21.497Z,99401.69
2022-09-13T02:33:57.202Z,99400.88
2022-09-13T02:36:30.806Z,99398.84
2022-09-13T02:39:03.938Z,99399.31
2022-09-13T02:41:37.173Z,99404.34
2022-09-13T02:44:34.231Z,99405.84
2022-09-13T02:47:23.710Z,99402.75
2022-09-13T02:50:04.264Z,99396.88
2022-09-13T02:53:04.736Z,99400.91
2022-09-13T02:56:00.918Z,99399.41
2022-09-13T02:58:44.771Z,99397.13
2022-09-13T03:01:13.959Z,99396.06
2022-09-13T03:03:42.762Z,99401.69
2022-09-13T03:06:11.385Z,99403.44
2022-09-13T03:08:40.146Z,99395.25
2022-09-13T03:11:27.122Z,99395.22
2022-09-13T03:14:38.907Z,99399.00
2022-09-13T03:17:26.422Z,99398.72
2022-09-13T03:20:09.073Z,99397.88
2022-09-13T03:22:58.787Z,99391.63
2022-09-13T03:25:49.972Z,99397.66
2022-09-13T03:28:24.171Z,99398.66
2022-09-13T03:31:05.865Z,99399.09
2022-09-13T03:33:53.390Z,99396.22
2022-09-13T03:36:41.938Z,99394.91
2022-09-13T03:39:44.112Z,99392.31
2022-09-13T03:42:35.928Z,99391.78
2022-09-13T03:45:06.755Z,99384.63
2022-09-13T03:47:38.092Z,99383.88
2022-09-13T03:50:10.466Z,99383.34
2022-09-13T03:52:42.187Z,99385.31
2022-09-13T03:55:12.938Z,99377.06
2022-09-13T03:57:41.493Z,99384.97
2022-09-13T04:00:11.355Z,99383.38
2022-09-13T04:02:39.801Z,99385.41
2022-09-13T04:05:08.748Z,99380.00
2022-09-13T04:07:37.252Z,99377.63
2022-09-13T04:10:06.079Z,99379.38
2022-09-13T04:12:34.594Z,99371.59
2022-09-13T04:15:03.003Z,99364.91
2022-09-13T04:17:31.448Z,99371.97
2022-09-13T04:20:00.161Z,99366.00
2022-09-13T04:22:28.664Z,99363.84
2022-09-13T04:25:01.486Z,99367.34
2022-09-13T04:27:30.879Z,99362.16
2022-09-13T04:29:59.354Z,99352.84
2022-09-13T04:32:27.762Z,99350.72
2022-09-13T04:34:56.468Z,99350.59
2022-09-13T04:37:25.025Z,99352.22
2022-09-13T04:39:54.629Z,99345.53
2022-09-13T04:42:23.105Z,99346.28
2022-09-13T04:44:51.591Z,99332.94
2022-09-13T04:47:20.585Z,99326.75
2022-09-13T04:49:49.652Z,99317.75
2022-09-13T04:52:18.040Z,99318.41
2022-09-13T04:54:46.577Z,99312.97
2022-09-13T04:57:17.640Z,99313.41
2022-09-13T04:59:46.211Z,99308.94
2022-09-13T05:02:14.870Z,99301.44
2022-09-13T05:04:43.404Z,99299.09
2022-09-13T05:07:11.912Z,99288.97
2022-09-13T05:09:40.705Z,99289.19
2022-09-13T05:12:09.455Z,99287.88
2022-09-13T05:14:38.027Z,99283.47
2022-09-13T05:17:06.507Z,99282.91
2022-09-13T05:19:36.059Z,99281.06
2022-09-13T05:22:04.836Z,99279.97
2022-09-13T05:24:34.075Z,99279.41
2022-09-13T05:27:02.587Z,99267.78
2022-09-13T05:29:31.123Z,99262.38
2022-09-13T05:31:59.792Z,99244.34
2022-09-13T05:34:28.250Z,99238.69
2022-09-13T05:36:56.721Z,99238.91
2022-09-13T05:39:48.382Z,99229.13
2022-09-13T05:42:13.746Z,99227.25
2022-09-13T05:44:42.214Z,99224.84
2022-09-13T05:47:10.829Z,99215.06
2022-09-13T05:49:56.695Z,99212.09
2022-09-13T05:52:27.781Z,99203.50
2022-09-13T05:54:56.247Z,99202.41
2022-09-13T05:57:24.732Z,99204.69
2022-09-13T05:59:53.158Z,99194.34
2022-09-13T06:02:21.655Z,99191.94
2022-09-13T06:04:51.871Z,99183.69
2022-09-13T06:07:20.395Z,99181.59
2022-09-13T06:09:49.173Z,99174.66
2022-09-13T06:12:17.689Z,99166.59
2022-09-13T06:14:46.175Z,99158.88
2022-09-13T06:17:16.133Z,99151.56
2022-09-13T06:19:45.536Z,99157.22
2022-09-13T06:22:14.058Z,99143.28
2022-09-13T06:24:42.624Z,99140.16
2022-09-13T06:27:13.869Z,99134.34
2022-09-13T06:29:42.299Z,99130.75
2022-09-13T06:32:11.130Z,99130.41
2022-09-13T06:34:39.570Z,99117.03
2022-09-13T06:37:08.048Z,99117.22
2022-09-13T06:39:36.592Z,99123.63
2022-09-13T06:42:05.518Z,99113.09
2022-09-13T06:44:33.935Z,99116.13
2022-09-13T06:47:02.380Z,99111.41
2022-09-13T06:49:32.526Z,99102.59
2022-09-13T06:52:01.170Z,99094.66
2022-09-13T06:54:30.260Z,99094.09
2022-09-13T06:56:58.754Z,99084.31
2022-09-13T06:59:27.398Z,99078.09
2022-09-13T07:01:55.828Z,99066.03
2022-09-13T07:04:24.832Z,99055.69
2022-09-13T07:06:53.383Z,99048.72
2022-09-13T07:09:23.443Z,99050.44
2022-09-13T07:11:54.730Z,99052.28
2022-09-13T07:14:26.175Z,99042.31
2022-09-13T07:16:55.916Z,99039.47
2022-09-13T07:19:27.583Z,99036.09
2022-09-13T07:21:57.848Z,99028.16
2022-09-13T07:24:26.813Z,99025.34
2022-09-13T07:26:55.282Z,99020.44
2022-09-13T07:29:24.845Z,99018.38
2022-09-13T07:31:56.139Z,99009.13
2022-09-13T07:34:27.065Z,99003.47
2022-09-13T07:36:55.912Z,99003.69
2022-09-13T07:39:25.288Z,99002.94
2022-09-13T07:41:54.752Z,99006.53
2022-09-13T07:44:23.897Z,99002.22
2022-09-13T07:46:52.472Z,99007.13
2022-09-13T07:49:21.499Z,98997.88
2022-09-13T07:51:52.290Z,98995.59
2022-09-13T07:54:21.758Z,98996.56
2022-09-13T07:56:51.343Z,98992.03
2022-09-13T07:59:20.672Z,98991.47
2022-09-13T08:01:53.117Z,98987.16
2022-09-13T08:04:25.957Z,98984.13
2022-09-13T08:06:54.438Z,98981.09
2022-09-13T08:09:23.234Z,98981.88
2022-09-13T08:11:53.971Z,98978.28
2022-09-13T08:14:24.297Z,98968.47
2022-09-13T08:16:56.294Z,98963.03
2022-09-13T08:19:24.802Z,98963.97
2022-09-13T08:21:53.256Z,98956.03
2022-09-13T08:24:23.169Z,98948.69
2022-09-13T08:26:53.077Z,98949.47
2022-09-13T08:29:21.713Z,98943.47
2022-09-13T08:31:50.171Z,98947.03
2022-09-13T08:34:19.265Z,98953.25
2022-09-13T08:36:47.635Z,98956.84
2022-09-13T08:39:16.203Z,98950.97
2022-09-13T08:41:53.500Z,98955.88
2022-09-13T08:44:43.385Z,98945.13
2022-09-13T08:47:39.959Z,98941.53
2022-09-13T08:50:20.706Z,98929.09
2022-09-13T08:53:31.625Z,98934.38
2022-09-13T08:56:19.357Z,98931.34
2022-09-13T08:58:53.790Z,98928.31
2022-09-13T09:01:55.449Z,98917.56
2022-09-13T09:04:33.442Z,98918.53
2022-09-13T09:07:04.998Z,98915.50
2022-09-13T09:09:56.569Z,98920.78
2022-09-13T09:12:33.863Z,98915.88
2022-09-13T09:15:26.382Z,98905.91
2022-09-13T09:18:16.312Z,98908.72
2022-09-13T09:20:57.571Z,98906.84
2022-09-13T09:23:47.607Z,98908.34
2022-09-13T09:26:30.136Z,98917.41
2022-09-13T09:29:00.868Z,98922.09
2022-09-13T09:31:57.963Z,98937.56
2022-09-13T09:34:53.203Z,98938.50
2022-09-13T09:37:31.496Z,98938.50
2022-09-13T09:40:08.962Z,98936.44
2022-09-13T09:42:49.418Z,98942.84
2022-09-13T09:45:37.240Z,98947.56
2022-09-13T09:48:16.762Z,98953.56
2022-09-13T09:50:59.516Z,98951.28
2022-09-13T09:53:44.612Z,98951.66
2022-09-13T09:56:34.879Z,98945.03
2022-09-13T09:59:27.997Z,98946.16
2022-09-13T10:02:06.580Z,98945.22
2022-09-13T10:04:37.159Z,98948.81
2022-09-13T10:07:27.480Z,98960.47
2022-09-13T10:10:05.045Z,98969.50
2022-09-13T10:12:40.793Z,98955.53
2022-09-13T10:15:21.267Z,98946.88
2022-09-13T10:18:16.794Z,98950.59
2022-09-13T10:21:19.323Z,98953.03
2022-09-13T10:23:51.842Z,98968.84
2022-09-13T10:26:23.924Z,98963.31
2022-09-13T10:29:07.592Z,98974.22
2022-09-13T10:31:42.508Z,98982.31
2022-09-13T10:34:36.564Z,98976.22
2022-09-13T10:37:15.842Z,98980.91
2022-09-13T10:40:25.658Z,98978.25
2022-09-13T10:43:04.510Z,98987.09
2022-09-13T10:45:33.835Z,98983.09
2022-09-13T10:48:22.880Z,98981.19
2022-09-13T10:51:16.195Z,98990.00
2022-09-13T10:53:44.780Z,98993.16
2022-09-13T10:56:27.879Z,98989.19
2022-09-13T10:59:16.595Z,98997.25
2022-09-13T11:02:15.926Z,99014.53
2022-09-13T11:05:21.103Z,99006.19
2022-09-13T11:08:13.965Z,99015.75
2022-09-13T11:10:56.570Z,99025.88
2022-09-13T11:13:50.930Z,99041.81
2022-09-13T11:16:57.490Z,99048.38
2022-09-13T11:20:00.796Z,99053.59
2022-09-13T11:22:34.988Z,99058.06
2022-09-13T11:25:23.475Z,99055.59
2022-09-13T11:28:06.863Z,99053.88
2022-09-13T11:31:03.336Z,99067.56
2022-09-13T11:33:37.633Z,99069.19
2022-09-13T11:36:34.990Z,99068.00
2022-09-13T11:39:31.861Z,99068.88
2022-09-13T11:42:22.087Z,99073.66
2022-09-13T11:45:12.673Z,99079.09
2022-09-13T11:48:09.094Z,99089.16
2022-09-13T11:50:57.757Z,99096.97
2022-09-13T11:53:44.666Z,99098.63
2022-09-13T11:56:24.295Z,99101.78
2022-09-13T11:59:03.828Z,99117.50
2022-09-13T12:01:49.720Z,99125.53
2022-09-13T12:04:38.981Z,99141.22
2022-09-13T12:07:17.094Z,99139.28
2022-09-13T12:10:07.357Z,99157.81
2022-09-13T12:12:38.553Z,99156.84
2022-09-13T12:15:35.266Z,99153.59
2022-09-13T12:18:20.682Z,99147.31
2022-09-13T12:20:55.882Z,99156.81
2022-09-13T12:23:38.324Z,99165.34
2022-09-13T12:26:15.556Z,99170.53
2022-09-13T12:29:02.903Z,99176.50
2022-09-13T12:31:33.169Z,99168.38
2022-09-13T12:34:07.500Z,99177.13
2022-09-13T12:36:52.749Z,99181.03
2022-09-13T12:39:43.917Z,99180.06
2022-09-13T12:42:44.574Z,99178.28
2022-09-13T12:45:19.186Z,99181.41
2022-09-13T12:48:14.893Z,99178.16
2022-09-13T12:51:10.142Z,99176.97
2022-09-13T12:53:56.957Z,99178.03
2022-09-13T12:57:02.967Z,99189.28
2022-09-13T12:59:43.845Z,99191.34
2022-09-13T13:02:48.391Z,99192.66
2022-09-13T13:05:33.021Z,99199.78
2022-09-13T13:08:08.504Z,99205.19
2022-09-13T13:10:39.895Z,99211.38
2022-09-13T13:13:16.143Z,99214.72
2022-09-13T13:15:49.321Z,99225.44
2022-09-13T13:18:41.979Z,99228.81
2022-09-13T13:21:31.157Z,99244.94
2022-09-13T13:24:17.888Z,99247.00
2022-09-13T13:26:55.640Z,99253.91
2022-09-13T13:29:24.591Z,99247.53
2022-09-13T13:32:00.232Z,99252.41
2022-09-13T13:34:38.002Z,99249.03
2022-09-13T13:37:32.937Z,99247.53
2022-09-13T13:40:26.779Z,99252.94
2022-09-13T13:43:34.796Z,99259.59
2022-09-13T13:46:12.482Z,99257.31
2022-09-13T13:48:43.411Z,99266.31
2022-09-13T13:51:20.892Z,99267.56
2022-09-13T13:54:01.973Z,99263.22
2022-09-13T13:56:48.830Z,99267.13
2022-09-13T13:59:34.237Z,99268.19
2022-09-13T14:02:03.063Z,99271.75
2022-09-13T14:05:15.657Z,99272.28
2022-09-13T14:08:13.675Z,99274.34
2022-09-13T14:11:15.486Z,99271.31
2022-09-13T14:13:53.198Z,99283.09
2022-09-13T14:16:59.923Z,99280.06
2022-09-13T14:19:37.179Z,99283.41
2022-09-13T14:22:17.106Z,99292.59
2022-09-13T14:24:49.592Z,99295.19
2022-09-13T14:27:31.054Z,99300.06
2022-09-13T14:30:04.286Z,99300.06
2022-09-13T14:32:45.076Z,99304.16
2022-09-13T14:35:31.477Z,99318.22
2022-09-13T14:38:22.622Z,99317.47
2022-09-13T14:40:53.583Z,99315.41
2022-09-13T14:43:28.036Z,99315.19
2022-09-13T14:46:14.816Z,99315.69
2022-09-13T14:48:55.094Z,99320.56
2022-09-13T14:51:33.805Z,99318.28
2022-09-13T14:54:17.263Z,99320.31
2022-09-13T14:56:58.622Z,99305.28
2022-09-13T14:59:47.717Z,99312.19
2022-09-13T15:02:25.709Z,99309.16
2022-09-13T15:05:01.952Z,99315.31
2022-09-13T15:07:33.732Z,99316.59
2022-09-13T15:10:24.611Z,99310.72
2022-09-13T15:12:53.353Z,99306.94
2022-09-13T15:15:27.397Z,99310.03
2022-09-13T15:18:18.245Z,99306.25
2022-09-13T15:21:02.684Z,99304.72
2022-09-13T15:23:36.525Z,99308.59
2022-09-13T15:26:09.221Z,99300.66
2022-09-13T15:28:46.823Z,99306.81
2022-09-13T15:31:30.222Z,99304.28
2022-09-13T15:34:23.273Z,99303.53
2022-09-13T15:37:15.851Z,99301.78
2022-09-13T15:40:03.062Z,99294.63
2022-09-13T15:42:31.632Z,99300.03
2022-09-13T15:45:00.241Z,99296.97
2022-09-13T15:47:28.746Z,99298.25
2022-09-13T15:49:57.201Z,99291.09
2022-09-13T15:52:25.745Z,99285.47
2022-09-13T15:54:54.282Z,99288.81
2022-09-13T15:57:30.825Z,99276.81
2022-09-13T16:00:04.102Z,99283.94
2022-09-13T16:02:37.046Z,99279.63
2022-09-13T16:05:05.782Z,99280.38
2022-09-13T16:07:34.204Z,99282.97
2022-09-13T16:10:02.892Z,99293.44
2022-09-13T16:12:31.422Z,99291.16
2022-09-13T16:14:59.855Z,99289.41
2022-09-13T16:17:29.393Z,99287.13
2022-09-13T16:19:57.853Z,99289.69
2022-09-13T16:22:26.368Z,99287.38
2022-09-13T16:24:54.932Z,99284.34
2022-09-13T16:27:23.411Z,99288.22
2022-09-13T16:29:51.877Z,99280.31
2022-09-13T16:32:21.083Z,99290.78
2022-09-13T16:34:49.649Z,99294.66
2022-09-13T16:37:21.483Z,99293.91
2022-09-13T16:39:50.181Z,99290.31
2022-09-13T16:42:19.275Z,99288.81
2022-09-13T16:44:47.711Z,99289.56
2022-09-13T16:47:16.149Z,99286.00
2022-09-13T16:49:44.793Z,99290.84
2022-09-13T16:52:13.223Z,99288.03
2022-09-13T16:54:41.757Z,99296.47
2022-09-13T16:57:11.495Z,99292.13
2022-09-13T16:59:40.036Z,99288.56
2022-09-13T17:02:12.291Z,99289.34
2022-09-13T17:04:40.972Z,99287.28
2022-09-13T17:07:09.580Z,99288.03
2022-09-13T17:09:38.230Z,99280.13
2022-09-13T17:12:07.016Z,99279.38
2022-09-13T17:14:35.787Z,99277.31
2022-09-13T17:17:05.546Z,99275.81
2022-09-13T17:19:35.085Z,99271.47
2022-09-13T17:22:07.127Z,99273.53
2022-09-13T17:24:36.695Z,99264.31
2022-09-13T17:27:07.985Z,99262.81
2022-09-13T17:29:37.341Z,99263.34
2022-09-13T17:32:07.097Z,99254.91
2022-09-13T17:34:35.674Z,99255.44
2022-09-13T17:37:04.693Z,99247.00
2022-09-13T17:39:33.374Z,99247.00
2022-09-13T17:42:02.091Z,99249.28
2022-09-13T17:44:30.687Z,99237.50
2022-09-13T17:46:59.163Z,99243.13
2022-09-13T17:49:27.599Z,99236.22
2022-09-13T17:51:56.111Z,99233.66
2022-09-13T17:54:24.611Z,99228.78
2022-09-13T17:56:53.139Z,99231.59
2022-09-13T17:59:23.223Z,99221.13
2022-09-13T18:01:54.950Z,99226.22
2022-09-13T18:04:24.841Z,99223.41
2022-09-13T18:06:54.784Z,99225.69
2022-09-13T18:09:23.414Z,99223.63
2022-09-13T18:11:52.641Z,99218.00
2022-09-13T18:14:21.565Z,99224.38
2022-09-13T18:16:56.418Z,99216.72
2022-09-13T18:19:44.786Z,99214.66
2022-09-13T18:22:13.881Z,99221.56
2022-09-13T18:24:42.472Z,99208.28
2022-09-13T18:27:10.965Z,99209.03
2022-09-13T18:29:39.362Z,99207.53
2022-09-13T18:32:08.131Z,99199.84
2022-09-13T18:34:36.630Z,99205.47
2022-09-13T18:37:05.135Z,99202.66
2022-09-13T18:39:33.654Z,99201.13
2022-09-13T18:42:02.228Z,99194.00
2022-09-13T18:44:31.486Z,99196.06
2022-09-13T18:47:01.632Z,99192.47
2022-09-13T18:49:30.185Z,99196.06
2022-09-13T18:51:58.651Z,99194.53
2022-09-13T18:54:27.393Z,99195.81
2022-09-13T18:56:56.813Z,99191.50
2022-09-13T18:59:25.387Z,99191.50
2022-09-13T19:01:53.983Z,99192.78
2022-09-13T19:04:22.589Z,99187.16
2022-09-13T19:06:57.115Z,99182.81
2022-09-13T19:09:26.209Z,99181.53
2022-09-13T19:11:55.734Z,99179.47
2022-09-13T19:14:26.932Z,99180.25
2022-09-13T19:16:58.023Z,99169.00
2022-09-13T19:19:26.589Z,99174.63
2022-09-13T19:21:55.080Z,99169.00
2022-09-13T19:24:23.816Z,99167.47
2022-09-13T19:26:53.856Z,99165.44
2022-09-13T19:29:24.113Z,99159.06
2022-09-13T19:31:54.119Z,99151.38
2022-09-13T19:34:23.905Z,99147.81
2022-09-13T19:36:58.653Z,99148.56
2022-09-13T19:39:30.018Z,99142.94
2022-09-13T19:42:00.829Z,99148.56
2022-09-13T19:44:29.815Z,99159.81
2022-09-13T19:47:36.159Z,99151.91
2022-09-13T19:49:46.792Z,99151.69
2022-09-13T19:52:15.210Z,99155.78
2022-09-13T19:54:43.637Z,99154.25
2022-09-13T19:57:12.213Z,99155.03
2022-09-13T19:59:40.699Z,99152.22
2022-09-13T20:02:12.004Z,99155.78
2022-09-13T20:04:40.595Z,99155.03
2022-09-13T20:07:13.133Z,99156.53
2022-09-13T20:09:43.297Z,99151.69
2022-09-13T20:12:12.566Z,99152.44
2022-09-13T20:14:41.287Z,99146.06
2022-09-13T20:17:09.752Z,99142.50
2022-09-13T20:19:45.142Z,99143.25
2022-09-13T20:22:17.834Z,99141.72
2022-09-13T20:24:46.317Z,99137.63
2022-09-13T20:27:14.693Z,99137.63
2022-09-13T20:29:43.449Z,99148.34
2022-09-13T20:32:12.346Z,99143.47
2022-09-13T20:34:40.801Z,99142.19
2022-09-13T20:37:09.257Z,99141.66
2022-09-13T20:39:37.684Z,99141.66
2022-09-13T20:42:06.360Z,99141.13
2022-09-13T20:44:34.885Z,99138.31
2022-09-13T20:47:03.431Z,99141.13
2022-09-13T20:49:31.918Z,99143.94
2022-09-13T20:52:01.021Z,99141.88
2022-09-13T20:54:29.596Z,99139.84
2022-09-13T20:56:59.184Z,99144.69
2022-09-13T20:59:27.656Z,99143.94
2022-09-13T21:01:56.328Z,99143.19
2022-09-13T21:04:25.463Z,99142.41
2022-09-13T21:07:14.662Z,99146.53
2022-09-13T21:09:44.334Z,99145.75
2022-09-13T21:12:12.991Z,99139.91
2022-09-13T21:14:41.467Z,99137.63
2022-09-13T21:17:10.133Z,99142.50
2022-09-13T21:19:38.579Z,99138.16
2022-09-13T21:22:07.273Z,99138.69
2022-09-13T21:24:35.890Z,99137.16
2022-09-13T21:27:04.981Z,99142.03
2022-09-13T21:29:34.192Z,99138.19
2022-09-13T21:32:02.951Z,99147.16
2022-09-13T21:34:31.400Z,99144.13
2022-09-13T21:36:59.790Z,99142.59
2022-09-13T21:39:28.348Z,99147.47
2022-09-13T21:41:57.602Z,99149.50
2022-09-13T21:44:26.227Z,99155.66
2022-09-13T21:46:54.863Z,99163.31
2022-09-13T21:49:23.433Z,99165.38
2022-09-13T21:51:55.247Z,99168.72
2022-09-13T21:54:23.909Z,99170.53
2022-09-13T21:56:55.941Z,99168.00
2022-09-13T21:59:25.499Z,99176.44
2022-09-13T22:01:55.303Z,99180.00
2022-09-13T22:04:28.156Z,99177.22
2022-09-13T22:06:57.393Z,99175.69
2022-09-13T22:09:28.044Z,99177.72
2022-09-13T22:11:57.599Z,99176.22
2022-09-13T22:14:26.052Z,99182.59
2022-09-13T22:16:54.745Z,99179.03
2022-09-13T22:19:27.087Z,99179.03
2022-09-13T22:21:59.914Z,99179.78
2022-09-13T22:24:32.916Z,99185.41
2022-09-13T22:27:02.066Z,99187.44
2022-09-13T22:29:31.102Z,99186.69
2022-09-13T22:31:59.655Z,99185.94
2022-09-13T22:34:31.711Z,99185.16
2022-09-13T22:37:01.098Z,99192.31
2022-09-13T22:39:29.681Z,99185.94
2022-09-13T22:41:58.269Z,99185.16
2022-09-13T22:44:26.855Z,99192.06
2022-09-13T22:46:55.680Z,99195.63
2022-09-13T22:49:24.145Z,99196.16
2022-09-13T22:51:52.633Z,99200.25
2022-09-13T22:54:21.503Z,99209.94
2022-09-13T22:56:50.115Z,99214.81
2022-09-13T22:59:22.287Z,99215.34
2022-09-13T23:01:50.972Z,99225.81
2022-09-13T23:04:19.525Z,99227.81
2022-09-13T23:06:48.297Z,99232.69
2022-09-13T23:09:19.000Z,99229.88
2022-09-13T23:11:48.768Z,99241.38
2022-09-13T23:14:20.892Z,99238.56
2022-09-13T23:16:52.283Z,99247.00
2022-09-13T23:19:23.492Z,99241.38
2022-09-13T23:21:53.838Z,99243.66
2022-09-13T23:24:22.772Z,99244.41
2022-09-13T23:26:51.568Z,99255.16
2022-09-13T23:29:21.380Z,99255.41
2022-09-13T23:31:50.770Z,99259.19
2022-09-13T23:34:19.578Z,99260.72
2022-09-13T23:36:48.142Z,99268.09
2022-09-13T23:39:19.335Z,99269.09
2022-09-13T23:41:49.801Z,99278.53
2022-09-13T23:44:19.178Z,99280.28
2022-09-13T23:46:47.653Z,99277.72
2022-09-13T23:49:16.508Z,99291.47
2022-09-13T23:51:45.391Z,99298.13
2022-09-13T23:54:15.340Z,99290.69
2022-09-13T23:56:44.276Z,99298.06
2022-09-13T23:59:14.374Z,99301.88
